Saint Stephen, Minnesota
Current Conditions -  °F | °C
As of 5:53 AM on Sunday 25 Jan 2015 (Local Time) from KSTC Reporting Station
Scattered Clouds Scattered Clouds  
Wind Chill: 14°   Ceiling: Unl
Heat Index: 24°   Visibility: 10mi
Dew Point: 17°   Wind: 10mph
Humidity: 75%   Direction: 50°NE
Pressure: 29.9"   Gusts: NA
Location:  45.7°N, 94.27°W
Report Text: KSTC 251153Z AUTO 05009KT 10SM FEW019 FEW030 SCT120 M04/M08 A2990 RMK AO2 SLP148 70001 T10441083 10000 21044 51028
Loading
Personal Weather Stations






























Interactive Weather Map New forecast layout! Learn more

10-Day Weather Forecast

Advertisements
Track Severe Weather on mobile